Duck Lake, Canada
Current Conditions -  °F | °C
As of 11:00 PM on Thursday 27 Nov 2014 (Local Time) from CYPA Reporting Station
Light Snow Light Snow  
Wind Chill: -15°   Ceiling: 1500
Heat Index:   Visibility: 12mi
Dew Point: -2°   Wind: 14mph
Humidity: 78%   Direction: 70°ENE
Pressure: 30.1"   Gusts: NA
Location:  52.8°N, 106.22°W
Report Text: CYPA 280500Z 07012KT 12SM -SN BKN015 OVC060 M16/M19 A3010 RMK SC5SC3 SLP234
Loading
Personal Weather Stations






























Interactive Weather Map New forecast layout! Learn more

10-Day Weather Forecast

Advertisements
Track Severe Weather on mobile